Map

Track Data

SID SEASON NUMBER BASIN SUBBASIN NAME ISO_TIME NATURE LAT LON WMO_WIND WMO_PRES WMO_AGENCY TRACK_TYPE DIST2LAND LANDFALL IFLAG USA_AGENCY USA_ATCF_ID USA_LAT USA_LON USA_RECORD USA_STATUS USA_WIND USA_PRES USA_SSHS USA_R34_NE USA_R34_SE USA_R34_SW USA_R34_NW USA_R50_NE USA_R50_SE USA_R50_SW USA_R50_NW USA_R64_NE USA_R64_SE USA_R64_SW USA_R64_NW USA_POCI USA_ROCI USA_RMW USA_EYE TOKYO_LAT TOKYO_LON TOKYO_GRADE TOKYO_WIND TOKYO_PRES TOKYO_R50_DIR TOKYO_R50_LONG TOKYO_R50_SHORT TOKYO_R30_DIR TOKYO_R30_LONG TOKYO_R30_SHORT TOKYO_LAND CMA_LAT CMA_LON CMA_CAT CMA_WIND CMA_PRES HKO_LAT HKO_LON HKO_CAT HKO_WIND HKO_PRES NEWDELHI_LAT NEWDELHI_LON NEWDELHI_GRADE NEWDELHI_WIND NEWDELHI_PRES NEWDELHI_CI NEWDELHI_DP NEWDELHI_POCI REUNION_LAT REUNION_LON REUNION_TYPE REUNION_WIND REUNION_PRES REUNION_TNUM REUNION_CI REUNION_RMW REUNION_R34_NE REUNION_R34_SE REUNION_R34_SW REUNION_R34_NW REUNION_R50_NE REUNION_R50_SE REUNION_R50_SW REUNION_R50_NW REUNION_R64_NE REUNION_R64_SE REUNION_R64_SW REUNION_R64_NW BOM_LAT BOM_LON BOM_TYPE BOM_WIND BOM_PRES BOM_TNUM BOM_CI BOM_RMW BOM_R34_NE BOM_R34_SE BOM_R34_SW BOM_R34_NW BOM_R50_NE BOM_R50_SE BOM_R50_SW BOM_R50_NW BOM_R64_NE BOM_R64_SE BOM_R64_SW BOM_R64_NW BOM_ROCI BOM_POCI BOM_EYE BOM_POS_METHOD BOM_PRES_METHOD NADI_LAT NADI_LON NADI_CAT NADI_WIND NADI_PRES WELLINGTON_LAT WELLINGTON_LON WELLINGTON_WIND WELLINGTON_PRES DS824_LAT DS824_LON DS824_STAGE DS824_WIND DS824_PRES TD9636_LAT TD9636_LON TD9636_STAGE TD9636_WIND TD9636_PRES TD9635_LAT TD9635_LON TD9635_WIND TD9635_PRES TD9635_ROCI NEUMANN_LAT NEUMANN_LON NEUMANN_CLASS NEUMANN_WIND NEUMANN_PRES MLC_LAT MLC_LON MLC_CLASS MLC_WIND MLC_PRES USA_GUST BOM_GUST BOM_GUST_PER REUNION_GUST REUNION_GUST_PER USA_SEAHGT USA_SEARAD_NE USA_SEARAD_SE USA_SEARAD_SW USA_SEARAD_NW STORM_SPEED STORM_DIR
1950291N26271 1950 97 NA GM LOVE 1950-10-18 00:00:00 TS 25.5000 -89.5000 40 hurdat_atl main 392 385 O_____________ hurdat_atl AL131950 25.5000 -89.5000 TS 40 0 11 283
1950291N26271 1950 97 NA GM LOVE 1950-10-18 03:00:00 TS 25.6284 -90.1120 main 390 368 P_____________ AL131950 25.6284 -90.1120 TS 45 0 10 288
1950291N26271 1950 97 NA GM LOVE 1950-10-18 06:00:00 TS 25.8000 -90.5000 50 hurdat_atl main 368 346 O_____________ hurdat_atl AL131950 25.8000 -90.5000 TS 50 0 6 317
1950291N26271 1950 97 NA GM LOVE 1950-10-18 09:00:00 TS 26.0422 -90.5381 main 346 312 P_____________ AL131950 26.0422 -90.5381 TS 55 0 5 2
1950291N26271 1950 97 NA GM LOVE 1950-10-18 12:00:00 TS 26.3000 -90.5000 60 hurdat_atl main 312 290 O_____________ hurdat_atl AL131950 26.3000 -90.5000 TS 60 0 5 342
1950291N26271 1950 97 NA GM LOVE 1950-10-18 15:00:00 TS 26.5451 -90.7197 main 290 267 P_____________ AL131950 26.5451 -90.7197 TS 60 0 6 312
1950291N26271 1950 97 NA GM LOVE 1950-10-18 18:00:00 TS 26.7000 -91.0000 60 hurdat_atl main 268 268 O_____________ hurdat_atl AL131950 26.7000 -91.0000 TS 60 0 5 288
1950291N26271 1950 97 NA GM LOVE 1950-10-18 21:00:00 TS 26.6950 -91.2227 main 269 269 P_____________ AL131950 26.6950 -91.2227 TS 60 0 4 254
1950291N26271 1950 97 NA GM LOVE 1950-10-19 00:00:00 TS 26.6000 -91.4000 60 hurdat_atl main 283 283 O_____________ hurdat_atl AL131950 26.6000 -91.4000 TS 60 0 3 238
1950291N26271 1950 97 NA GM LOVE 1950-10-19 03:00:00 TS 26.5225 -91.5300 main 296 296 P_____________ AL131950 26.5225 -91.5300 TS 60 0 3 222
1950291N26271 1950 97 NA GM LOVE 1950-10-19 06:00:00 TS 26.4000 -91.6000 60 hurdat_atl main 309 309 O_____________ hurdat_atl AL131950 26.4000 -91.6000 TS 60 0 3 201
1950291N26271 1950 97 NA GM LOVE 1950-10-19 09:00:00 TS 26.2149 -91.6602 main 333 333 P_____________ AL131950 26.2149 -91.6602 TS 60 0 4 0
1950291N26271 1950 97 NA GM LOVE 1950-10-19 12:00:00 TS 26.0000 -91.6000 60 990 hurdat_atl main 352 352 O_____________ hurdat_atl AL131950 26.0000 -91.6000 TS 60 990 0 5 152
1950291N26271 1950 97 NA GM LOVE 1950-10-19 15:00:00 TS 25.7846 -91.4049 main 371 371 P_____________ AL131950 25.7846 -91.4049 TS 62 990 0 7 127
1950291N26271 1950 97 NA GM LOVE 1950-10-19 18:00:00 TS 25.6000 -91.0000 65 990 hurdat_atl main 390 390 O_____________ hurdat_atl AL131950 25.6000 -91.0000 HU 65 990 1 10 110
1950291N26271 1950 97 NA GM LOVE 1950-10-19 21:00:00 TS 25.4480 -90.3520 main 413 405 P_____________ AL131950 25.4480 -90.3520 HU 67 988 1 13 99
1950291N26271 1950 97 NA GM LOVE 1950-10-20 00:00:00 TS 25.4000 -89.6000 70 987 hurdat_atl main 405 390 O_____________ hurdat_atl AL131950 25.4000 -89.6000 HU 70 987 1 13 87
1950291N26271 1950 97 NA GM LOVE 1950-10-20 03:00:00 TS 25.5124 -88.9206 main 391 374 P_____________ AL131950 25.5124 -88.9206 HU 70 1 12 76
1950291N26271 1950 97 NA GM LOVE 1950-10-20 06:00:00 TS 25.7000 -88.3000 70 hurdat_atl main 376 370 O_____________ hurdat_atl AL131950 25.7000 -88.3000 HU 70 1 11 72
1950291N26271 1950 97 NA GM LOVE 1950-10-20 09:00:00 TS 25.8422 -87.7623 main 379 372 P_____________ AL131950 25.8422 -87.7623 HU 70 1 9 72
1950291N26271 1950 97 NA GM LOVE 1950-10-20 12:00:00 TS 26.0000 -87.3000 70 hurdat_atl main 379 373 O_____________ hurdat_atl AL131950 26.0000 -87.3000 HU 70 1 8 67
1950291N26271 1950 97 NA GM LOVE 1950-10-20 15:00:00 TS 26.1694 -86.9218 main 380 376 P_____________ AL131950 26.1694 -86.9218 HU 70 1 8 61
1950291N26271 1950 97 NA GM LOVE 1950-10-20 18:00:00 TS 26.4000 -86.5000 70 991 hurdat_atl main 383 325 O_____________ hurdat_atl AL131950 26.4000 -86.5000 HU 70 991 1 11 62
1950291N26271 1950 97 NA GM LOVE 1950-10-20 21:00:00 TS 26.6753 -85.8794 main 325 243 P_____________ AL131950 26.6753 -85.8794 HU 70 1 14 59
1950291N26271 1950 97 NA GM LOVE 1950-10-21 00:00:00 TS 27.1000 -85.2000 70 hurdat_atl main 243 168 O_____________ hurdat_atl AL131950 27.1000 -85.2000 HU 70 1 16 48
1950291N26271 1950 97 NA GM LOVE 1950-10-21 03:00:00 TS 27.7456 -84.5538 main 168 117 P_____________ AL131950 27.7456 -84.5538 HU 65 1 18 37
1950291N26271 1950 97 NA GM LOVE 1950-10-21 06:00:00 TS 28.5000 -84.0000 60 hurdat_atl main 117 38 O_____________ hurdat_atl AL131950 28.5000 -84.0000 TS 60 0 17 29
1950291N26271 1950 97 NA GM LOVE 1950-10-21 09:00:00 TS 29.2467 -83.6078 main 38 0 P_____________ AL131950 29.2467 -83.6078 TS 54 0 16 24
1950291N26271 1950 97 NA NA LOVE 1950-10-21 11:00:00 TS 29.7000 -83.4000 50 hurdat_atl main 0 0 O_____________ hurdat_atl AL131950 29.7000 -83.4000 L TS 50 0 14 22
1950291N26271 1950 97 NA NA LOVE 1950-10-21 12:00:00 TS 29.9000 -83.3000 50 hurdat_atl main 0 0 O_____________ hurdat_atl AL131950 29.9000 -83.3000 TS 50 0 12 27
1950291N26271 1950 97 NA NA LOVE 1950-10-21 15:00:00 TS 30.4025 -82.9939 main 0 0 P_____________ AL131950 30.4025 -82.9939 TS 40 0 10 30
1950291N26271 1950 97 NA NA LOVE 1950-10-21 18:00:00 TS 30.8000 -82.7000 30 hurdat_atl main 0 0 O_____________ hurdat_atl AL131950 30.8000 -82.7000 TD 30 -1 9 32
1950291N26271 1950 97 NA NA LOVE 1950-10-21 21:00:00 TS 31.1799 -82.4348 main 0 0 P_____________ AL131950 31.1799 -82.4348 TD 30 -1 8 31
1950291N26271 1950 97 NA NA LOVE 1950-10-22 00:00:00 TS 31.5000 -82.2000 30 hurdat_atl main 0 0 O_____________ hurdat_atl AL131950 31.5000 -82.2000 TD 30 -1 7 33
1950291N26271 1950 97 NA NA LOVE 1950-10-22 03:00:00 TS 31.7649 -81.9922 main 0 0 P_____________ AL131950 31.7649 -81.9922 TD 30 -1 6 34
1950291N26271 1950 97 NA NA LOVE 1950-10-22 06:00:00 TS 32.0000 -81.8000 30 hurdat_atl main 0 0 O_____________ hurdat_atl AL131950 32.0000 -81.8000 TD 30 -1 6 35
1950291N26271 1950 97 NA NA LOVE 1950-10-22 09:00:00 TS 32.2500 -81.5850 main 0 0 P_____________ AL131950 32.2500 -81.5850 TD 30 -1 6 34
1950291N26271 1950 97 NA NA LOVE 1950-10-22 12:00:00 TS 32.5000 -81.4000 30 hurdat_atl main 0 0 O_____________ hurdat_atl AL131950 32.5000 -81.4000 TD 30 -1 6 27
1950291N26271 1950 97 NA NA LOVE 1950-10-22 15:00:00 TS 32.7500 -81.2800 main 0 0 P_____________ AL131950 32.7500 -81.2800 TD 30 -1 5 19
1950291N26271 1950 97 NA NA LOVE 1950-10-22 18:00:00 ET 33.0000 -81.2000 30 hurdat_atl main 0 O_____________ hurdat_atl AL131950 33.0000 -81.2000 EX 30 -4 5 15

About IBTrACS Database

This database is a web-friendly format of International Best Track Archive for Climate Stewardship (IBTrACS), a global best track data archive curated by NOAA dating back to 1842.

Updated: 2021-10-27